Terminal Aerodrome Forecast
Issued by NWS Jacksonville, FL

Home | Current Version | Previous Version | Text Only | Print | Product List | Glossary On
Versions: 1 2 3 4 5 6 7 8 9 10 11 12 13 14 15 16 17 18 19 20 21 22 23 24 25 26 27 28 29 30
552
FTUS42 KJAX 170549
TAFGNV
TAF
KGNV 170549Z 1706/1806 00000KT P6SM SCT060 BKN250
     FM171000 00000KT 1SM BR SCT002 BKN250
      TEMPO 1710/1713 1/4SM FG BKN002
     FM171400 18006KT P6SM SCT015 SCT250
     FM171900 21007KT P6SM SCT040 BKN250
     FM180100 18003KT P6SM SCT050 BKN250=

USA.gov is the U.S. government's official web portal to all federal, state and local government web resources and services.